Time;durP1;ratioP1;P1;durP2;ratioP2;P2;SDS_P1;SDS_P2;PMS_P1;PMS_P2;Temp;Humidity;BMP_temperature;BMP_pressure;BME280_temperature;BME280_humidity;BME280_pressure;Samples;Min_cycle;Max_cycle;Signal;HPM_P1;HPM_P2
2023/05/15 00:00:20;;;;;;;4.97;4.68;;;11.00;99.90;;;;;;5044724;28;20295;-72
2023/05/15 00:02:47;;;;;;;5.55;5.15;;;10.90;99.90;;;;;;5045659;28;20203;-71
2023/05/15 00:05:14;;;;;;;5.38;4.97;;;10.90;99.90;;;;;;5043161;28;20337;-73
2023/05/15 00:07:42;;;;;;;5.20;4.80;;;10.90;99.90;;;;;;5042763;28;20203;-72
2023/05/15 00:10:10;;;;;;;5.78;5.38;;;11.00;99.90;;;;;;5046822;28;20231;-70
2023/05/15 00:12:37;;;;;;;5.53;5.13;;;11.00;99.90;;;;;;5050988;28;20296;-72
2023/05/15 00:15:05;;;;;;;6.40;5.78;;;11.00;99.90;;;;;;5046110;28;20272;-71
2023/05/15 00:17:32;;;;;;;5.15;4.75;;;11.00;99.90;;;;;;5045552;28;20253;-71
2023/05/15 00:19:59;;;;;;;4.75;4.40;;;11.00;99.90;;;;;;5046224;28;20203;-75
2023/05/15 00:22:26;;;;;;;4.57;4.20;;;10.90;99.90;;;;;;5042775;28;20655;-70
2023/05/15 00:24:53;;;;;;;3.15;2.95;;;10.90;99.90;;;;;;5048648;28;20226;-72
2023/05/15 00:27:21;;;;;;;3.28;3.08;;;10.90;99.90;;;;;;5047809;28;20599;-74
2023/05/15 00:29:48;;;;;;;3.47;3.28;;;10.90;99.90;;;;;;5050720;28;20213;-71
2023/05/15 00:32:15;;;;;;;3.53;3.22;;;10.90;99.90;;;;;;5042927;28;20214;-71
2023/05/15 00:34:42;;;;;;;5.70;3.70;;;10.90;99.90;;;;;;5045836;28;20308;-72
2023/05/15 00:37:09;;;;;;;3.10;2.90;;;10.80;99.90;;;;;;5046132;28;20234;-71
2023/05/15 00:39:36;;;;;;;2.95;2.75;;;10.80;99.90;;;;;;5041418;28;20518;-71
2023/05/15 00:42:04;;;;;;;2.50;2.33;;;10.80;99.90;;;;;;5045853;28;20198;-73
2023/05/15 00:44:34;;;;;;;2.28;2.17;;;10.80;99.90;;;;;;5044597;28;20223;-72
2023/05/15 00:47:03;;;;;;;1.90;1.80;;;10.80;99.90;;;;;;5047437;28;20207;-74
2023/05/15 00:49:34;;;;;;;2.92;2.72;;;10.80;99.90;;;;;;5045549;28;20234;-73
2023/05/15 00:52:02;;;;;;;3.20;3.00;;;10.80;99.90;;;;;;5048205;28;20264;-73
2023/05/15 00:54:29;;;;;;;3.10;2.90;;;10.80;99.90;;;;;;5047729;28;20230;-71
2023/05/15 00:56:57;;;;;;;2.75;2.65;;;10.80;99.90;;;;;;5046509;28;20198;-70
2023/05/15 00:59:26;;;;;;;2.92;2.72;;;10.80;99.90;;;;;;5047574;28;20199;-71
2023/05/15 01:01:54;;;;;;;2.90;2.70;;;10.80;99.90;;;;;;5047877;28;20750;-72
2023/05/15 01:04:21;;;;;;;2.30;2.20;;;10.80;99.90;;;;;;5051265;28;20713;-71
2023/05/15 01:06:48;;;;;;;2.15;2.05;;;10.80;99.90;;;;;;5044236;28;20199;-72
2023/05/15 01:09:16;;;;;;;2.13;2.03;;;10.80;99.90;;;;;;5044581;28;20601;-72
2023/05/15 01:11:44;;;;;;;2.47;2.38;;;10.80;99.90;;;;;;5042782;28;20297;-75
2023/05/15 01:14:11;;;;;;;2.17;2.08;;;10.80;99.90;;;;;;5050900;28;20219;-73
2023/05/15 01:16:38;;;;;;;2.03;1.92;;;10.80;99.90;;;;;;5047504;28;20229;-71
2023/05/15 01:19:06;;;;;;;2.00;1.90;;;10.80;99.90;;;;;;5045915;28;20203;-72
2023/05/15 01:22:10;;;;;;;2.38;2.28;;;10.80;99.90;;;;;;5046675;28;20267;-75
2023/05/15 01:25:03;;;;;;;2.72;2.53;;;10.80;99.90;;;;;;5048365;28;20249;-73
2023/05/15 01:27:35;;;;;;;2.67;2.47;;;10.80;99.90;;;;;;5041294;28;20231;-71
2023/05/15 01:30:12;;;;;;;2.40;2.30;;;10.80;99.90;;;;;;5041469;28;20207;-70
2023/05/15 01:32:47;;;;;;;2.20;2.10;;;10.80;99.90;;;;;;5046684;28;20607;-72
2023/05/15 01:35:21;;;;;;;2.05;1.95;;;10.80;99.90;;;;;;5045724;28;20268;-73
2023/05/15 01:38:02;;;;;;;2.10;2.00;;;10.80;99.90;;;;;;5047239;28;20235;-71
2023/05/15 01:40:29;;;;;;;1.67;1.63;;;10.80;99.90;;;;;;5045215;28;20199;-71
2023/05/15 01:43:05;;;;;;;1.92;1.83;;;10.80;99.90;;;;;;5048300;28;20259;-72
2023/05/15 01:45:34;;;;;;;2.25;2.15;;;10.80;99.90;;;;;;5046367;28;20704;-70
2023/05/15 01:48:02;;;;;;;2.30;2.20;;;10.70;99.90;;;;;;5047902;28;20256;-71
2023/05/15 01:50:32;;;;;;;2.13;2.03;;;10.70;99.90;;;;;;5039949;28;20202;-71
2023/05/15 01:53:02;;;;;;;2.38;2.28;;;10.70;99.90;;;;;;5044053;28;20239;-72
2023/05/15 01:55:30;;;;;;;2.38;2.25;;;10.70;99.90;;;;;;5047162;28;20230;-71
2023/05/15 01:58:00;;;;;;;3.10;2.90;;;10.70;99.90;;;;;;5046393;28;20202;-73
2023/05/15 02:00:28;;;;;;;4.10;3.80;;;10.70;99.90;;;;;;5043782;28;20261;-71
2023/05/15 02:02:56;;;;;;;4.07;3.78;;;10.70;99.90;;;;;;5047274;28;20222;-72
2023/05/15 02:05:24;;;;;;;3.58;3.38;;;10.70;99.90;;;;;;5045898;28;20203;-71
2023/05/15 02:07:51;;;;;;;3.85;3.60;;;10.70;99.90;;;;;;5044626;28;20203;-72
2023/05/15 02:10:19;;;;;;;3.47;3.17;;;10.60;99.90;;;;;;5043817;28;20231;-74
2023/05/15 02:12:48;;;;;;;2.85;2.65;;;10.60;99.90;;;;;;5050890;28;20296;-72
2023/05/15 02:15:18;;;;;;;2.90;2.70;;;10.60;99.90;;;;;;5051885;28;20233;-71
2023/05/15 02:17:45;;;;;;;2.80;2.60;;;10.50;99.90;;;;;;5049100;28;20211;-75
2023/05/15 02:20:13;;;;;;;2.83;2.63;;;10.50;99.90;;;;;;5047734;28;20517;-73
2023/05/15 02:22:40;;;;;;;2.80;2.60;;;10.50;99.90;;;;;;5053105;28;20198;-74
2023/05/15 02:25:07;;;;;;;2.58;2.38;;;10.50;99.90;;;;;;5051375;28;20264;-72
2023/05/15 02:27:42;;;;;;;2.95;2.75;;;10.50;99.90;;;;;;5052581;28;20207;-72
2023/05/15 02:30:20;;;;;;;2.97;2.78;;;10.50;99.90;;;;;;5055203;28;20232;-71
2023/05/15 02:32:56;;;;;;;3.47;3.28;;;10.50;99.90;;;;;;5054727;28;20815;-72
2023/05/15 02:35:31;;;;;;;4.22;3.85;;;10.50;99.90;;;;;;5052283;28;20234;-72
2023/05/15 02:38:02;;;;;;;4.35;4.05;;;10.50;99.90;;;;;;5056203;28;20507;-71
2023/05/15 02:40:30;;;;;;;4.38;4.07;;;10.50;99.90;;;;;;5054186;28;20565;-74
2023/05/15 02:42:57;;;;;;;3.95;3.65;;;10.50;99.90;;;;;;5060043;28;20202;-71
2023/05/15 02:45:26;;;;;;;3.53;3.33;;;10.50;99.90;;;;;;5055299;28;20249;-72
2023/05/15 02:47:54;;;;;;;3.78;3.58;;;10.50;99.90;;;;;;5048696;28;20293;-72
2023/05/15 02:50:21;;;;;;;3.97;3.67;;;10.40;99.90;;;;;;5048660;28;20765;-76
2023/05/15 02:52:48;;;;;;;3.03;2.83;;;10.40;99.90;;;;;;5053155;28;20215;-73
2023/05/15 02:55:15;;;;;;;3.50;3.30;;;10.40;99.90;;;;;;5050314;28;20221;-72
2023/05/15 02:57:42;;;;;;;2.85;2.65;;;10.30;99.90;;;;;;5045730;28;20741;-74
2023/05/15 03:00:11;;;;;;;2.40;2.30;;;10.30;99.90;;;;;;5047714;28;20202;-74
2023/05/15 03:02:39;;;;;;;2.55;2.45;;;10.30;99.90;;;;;;5048582;28;20195;-72
2023/05/15 03:05:07;;;;;;;2.42;2.33;;;10.30;99.90;;;;;;5050045;28;20230;-71
2023/05/15 03:07:34;;;;;;;2.30;2.20;;;10.30;99.90;;;;;;5049571;28;20268;-75
2023/05/15 03:10:01;;;;;;;2.20;2.10;;;10.40;99.90;;;;;;5048109;28;20429;-75
2023/05/15 03:12:28;;;;;;;2.13;2.03;;;10.30;99.90;;;;;;5049815;28;20709;-74
2023/05/15 03:14:55;;;;;;;1.92;1.83;;;10.40;99.90;;;;;;5043902;28;20250;-72
2023/05/15 03:17:22;;;;;;;1.77;1.73;;;10.40;99.90;;;;;;5048072;28;20216;-71
2023/05/15 03:19:50;;;;;;;1.80;1.70;;;10.40;99.90;;;;;;5049584;28;20701;-73
2023/05/15 03:22:17;;;;;;;1.83;1.73;;;10.40;99.90;;;;;;5047885;28;20323;-73
2023/05/15 03:24:45;;;;;;;1.70;1.60;;;10.40;99.90;;;;;;5046599;28;20300;-73
2023/05/15 03:27:12;;;;;;;1.80;1.70;;;10.40;99.90;;;;;;5050888;28;20656;-75
2023/05/15 03:29:39;;;;;;;1.75;1.73;;;10.40;99.90;;;;;;5046669;28;20270;-73
2023/05/15 03:32:06;;;;;;;1.73;1.63;;;10.50;99.90;;;;;;5048202;28;20223;-74
2023/05/15 03:34:33;;;;;;;1.90;1.80;;;10.50;99.90;;;;;;5046309;28;20223;-73
2023/05/15 03:37:01;;;;;;;2.80;2.60;;;10.50;99.90;;;;;;5046587;28;20226;-74
2023/05/15 03:39:28;;;;;;;3.05;2.85;;;10.50;99.90;;;;;;5045886;28;20766;-75
2023/05/15 03:41:55;;;;;;;2.80;2.60;;;10.50;99.90;;;;;;5049799;28;20241;-73
2023/05/15 03:44:22;;;;;;;2.90;2.70;;;10.50;99.90;;;;;;5046295;28;20268;-71
2023/05/15 03:46:49;;;;;;;2.67;2.58;;;10.50;99.90;;;;;;5052447;28;20218;-72
2023/05/15 03:49:16;;;;;;;2.40;2.30;;;10.50;99.90;;;;;;5047409;28;20282;-72
2023/05/15 03:51:43;;;;;;;2.15;2.05;;;10.50;99.90;;;;;;5044594;28;20195;-72
2023/05/15 03:54:11;;;;;;;2.38;1.90;;;10.50;99.90;;;;;;5045742;28;20218;-74
2023/05/15 03:56:38;;;;;;;2.13;2.03;;;10.50;99.90;;;;;;5053079;28;20230;-71
2023/05/15 03:59:05;;;;;;;2.10;2.00;;;10.60;99.90;;;;;;5048996;28;20244;-71
2023/05/15 04:01:32;;;;;;;2.55;2.40;;;10.60;99.90;;;;;;5040854;28;20222;-71
2023/05/15 04:03:59;;;;;;;2.95;2.75;;;10.60;99.90;;;;;;5046175;28;20836;-70
2023/05/15 04:06:26;;;;;;;3.17;2.97;;;10.60;99.90;;;;;;5045870;28;20298;-72
2023/05/15 04:08:52;;;;;;;3.10;2.90;;;10.60;99.90;;;;;;5047367;28;20248;-71
2023/05/15 04:11:22;;;;;;;3.05;2.85;;;10.60;99.90;;;;;;5044478;28;20261;-73
2023/05/15 04:13:49;;;;;;;5.00;3.03;;;10.70;99.90;;;;;;5048473;28;20223;-70
2023/05/15 04:16:16;;;;;;;3.05;2.85;;;10.70;99.90;;;;;;5044195;28;20288;-72
2023/05/15 04:18:43;;;;;;;3.15;2.95;;;10.70;99.90;;;;;;5048625;28;20207;-72
2023/05/15 04:21:10;;;;;;;3.10;2.90;;;10.70;99.90;;;;;;5048200;28;20631;-74
2023/05/15 04:23:37;;;;;;;3.22;3.03;;;10.70;99.90;;;;;;5047128;28;20381;-72
2023/05/15 04:26:04;;;;;;;2.50;2.40;;;10.70;99.90;;;;;;5042228;28;20735;-72
2023/05/15 04:28:32;;;;;;;2.67;2.58;;;10.80;99.90;;;;;;5049000;28;20753;-71
2023/05/15 04:30:59;;;;;;;2.83;2.70;;;10.80;99.90;;;;;;5050048;28;20229;-72
2023/05/15 04:33:26;;;;;;;2.35;2.25;;;10.90;99.90;;;;;;5047894;28;20250;-71
2023/05/15 04:35:53;;;;;;;2.70;2.50;;;11.00;99.90;;;;;;5045514;28;20288;-72
2023/05/15 04:38:20;;;;;;;2.92;2.72;;;11.00;99.90;;;;;;5041656;28;20292;-72
2023/05/15 04:40:47;;;;;;;3.28;3.05;;;11.10;99.90;;;;;;5046681;28;20206;-73
2023/05/15 04:43:14;;;;;;;3.25;3.05;;;11.20;99.90;;;;;;5048849;28;20214;-71
2023/05/15 04:45:42;;;;;;;3.83;3.60;;;11.30;99.90;;;;;;5048664;28;20289;-73
2023/05/15 04:48:09;;;;;;;4.45;4.15;;;11.30;99.90;;;;;;5050695;28;20261;-72
2023/05/15 04:50:36;;;;;;;3.88;3.50;;;11.40;99.90;;;;;;5041058;28;20210;-72
2023/05/15 04:53:03;;;;;;;4.07;3.78;;;11.40;99.90;;;;;;5052872;28;20356;-73
2023/05/15 04:55:30;;;;;;;4.07;3.80;;;11.50;99.90;;;;;;5051626;28;20203;-71
2023/05/15 04:57:57;;;;;;;4.28;3.97;;;11.60;99.90;;;;;;5044348;28;20212;-71
2023/05/15 05:00:25;;;;;;;4.90;4.50;;;11.70;99.90;;;;;;5051163;28;20493;-72
2023/05/15 05:02:54;;;;;;;4.80;4.40;;;11.60;99.90;;;;;;5046939;28;20198;-73
2023/05/15 05:05:21;;;;;;;4.13;3.83;;;11.50;99.90;;;;;;5046686;28;20741;-72
2023/05/15 05:07:50;;;;;;;5.10;4.65;;;11.40;99.90;;;;;;5043788;28;20204;-72
2023/05/15 05:10:17;;;;;;;5.05;4.68;;;11.40;99.90;;;;;;5045217;28;20210;-71
2023/05/15 05:12:44;;;;;;;4.35;4.05;;;11.50;99.90;;;;;;5044032;28;20676;-71
2023/05/15 05:15:11;;;;;;;4.65;4.30;;;11.60;99.90;;;;;;5046807;28;20261;-72
2023/05/15 05:17:38;;;;;;;4.65;4.30;;;11.80;99.90;;;;;;5048013;28;20256;-71
2023/05/15 05:20:09;;;;;;;9.70;4.43;;;12.10;99.90;;;;;;5046094;28;20206;-72
2023/05/15 05:22:36;;;;;;;4.57;4.28;;;12.40;99.90;;;;;;5040916;28;20213;-71
2023/05/15 05:25:03;;;;;;;4.20;3.90;;;12.60;99.90;;;;;;5047520;28;20214;-72
2023/05/15 05:27:30;;;;;;;4.95;4.45;;;12.80;99.90;;;;;;5050507;28;20676;-72
2023/05/15 05:29:57;;;;;;;4.78;4.38;;;13.00;99.90;;;;;;5045162;28;20195;-72
2023/05/15 05:32:24;;;;;;;5.25;4.85;;;13.10;99.90;;;;;;5046485;28;20209;-71
2023/05/15 05:34:51;;;;;;;5.07;4.57;;;13.10;99.90;;;;;;5049854;28;20214;-73
2023/05/15 05:37:19;;;;;;;4.90;4.60;;;13.10;99.90;;;;;;5039348;28;20245;-72
2023/05/15 05:39:46;;;;;;;4.97;4.68;;;13.10;99.90;;;;;;5039549;28;20215;-71
2023/05/15 05:42:13;;;;;;;5.82;5.38;;;13.20;99.90;;;;;;5042695;28;20195;-75
2023/05/15 05:44:40;;;;;;;7.32;6.63;;;13.20;99.90;;;;;;5039246;28;20864;-71
2023/05/15 05:47:07;;;;;;;8.00;7.30;;;13.20;99.90;;;;;;5038793;28;20658;-73
2023/05/15 05:49:34;;;;;;;8.70;7.93;;;13.30;99.90;;;;;;5036548;28;20284;-72
2023/05/15 05:52:06;;;;;;;8.50;7.80;;;13.40;99.90;;;;;;5042896;28;20621;-71
2023/05/15 05:54:35;;;;;;;7.40;6.78;;;13.50;99.90;;;;;;5037149;28;20230;-72
2023/05/15 05:57:02;;;;;;;6.35;5.75;;;13.80;99.90;;;;;;5044440;28;20268;-71
2023/05/15 05:59:29;;;;;;;4.82;4.53;;;13.90;99.90;;;;;;5043926;28;20301;-71
2023/05/15 06:01:56;;;;;;;4.60;4.30;;;13.90;99.90;;;;;;5041561;28;20808;-72
2023/05/15 06:04:23;;;;;;;4.35;4.05;;;14.00;99.90;;;;;;5044466;28;20580;-73
2023/05/15 06:06:50;;;;;;;5.25;4.85;;;14.10;99.90;;;;;;5046662;28;20282;-71
2023/05/15 06:09:17;;;;;;;3.95;3.55;;;14.20;99.90;;;;;;5042352;28;20199;-72
2023/05/15 06:11:45;;;;;;;4.03;3.72;;;14.50;99.90;;;;;;5047818;28;20697;-74
2023/05/15 06:14:12;;;;;;;4.82;4.43;;;14.70;99.90;;;;;;5045396;28;20226;-72
2023/05/15 06:16:39;;;;;;;3.65;3.45;;;14.60;99.90;;;;;;5039868;28;20202;-72
2023/05/15 06:19:06;;;;;;;3.33;3.10;;;14.40;99.90;;;;;;5046593;28;20213;-72
2023/05/15 06:21:33;;;;;;;3.03;2.70;;;14.40;99.90;;;;;;5045315;28;20276;-72
2023/05/15 06:24:00;;;;;;;2.80;2.60;;;14.40;99.90;;;;;;5039947;28;20242;-72
2023/05/15 06:26:27;;;;;;;2.00;1.90;;;14.30;99.90;;;;;;5047537;28;20677;-73
2023/05/15 06:28:55;;;;;;;2.80;2.22;;;14.10;99.90;;;;;;5045000;28;20621;-72
2023/05/15 06:31:22;;;;;;;2.00;1.90;;;13.90;99.90;;;;;;5046692;28;20203;-73
2023/05/15 06:33:49;;;;;;;2.10;2.00;;;13.90;99.90;;;;;;5040609;28;20272;-72
2023/05/15 06:36:16;;;;;;;2.47;2.28;;;14.10;99.90;;;;;;5044478;28;20209;-72
2023/05/15 06:38:43;;;;;;;2.30;2.20;;;14.60;99.90;;;;;;5047246;28;20285;-72
2023/05/15 06:41:10;;;;;;;2.25;2.15;;;14.80;99.90;;;;;;5043547;28;20238;-73
2023/05/15 06:43:37;;;;;;;2.28;2.08;;;14.90;99.90;;;;;;5043747;28;20254;-72
2023/05/15 06:46:05;;;;;;;2.03;1.92;;;15.30;99.90;;;;;;5046394;28;20529;-72
2023/05/15 06:48:33;;;;;;;2.10;2.00;;;15.70;99.90;;;;;;5040531;28;20285;-72
2023/05/15 06:51:00;;;;;;;1.98;1.88;;;16.10;99.90;;;;;;5049775;28;20195;-73
2023/05/15 06:53:29;;;;;;;2.40;2.30;;;16.00;99.90;;;;;;5044529;28;20250;-73
2023/05/15 06:55:56;;;;;;;2.60;2.40;;;15.80;99.90;;;;;;5045568;28;20281;-74
2023/05/15 06:58:24;;;;;;;2.42;2.25;;;15.60;99.90;;;;;;5039731;28;20202;-72
2023/05/15 07:00:50;;;;;;;3.47;2.03;;;15.30;99.90;;;;;;5043087;28;20619;-72
2023/05/15 07:03:19;;;;;;;2.30;2.20;;;15.20;99.90;;;;;;5047347;28;20218;-72
2023/05/15 07:05:46;;;;;;;2.58;1.88;;;15.50;99.90;;;;;;5043506;28;20284;-72
2023/05/15 07:08:13;;;;;;;2.08;1.88;;;15.60;99.90;;;;;;5038677;28;20321;-73
2023/05/15 07:10:40;;;;;;;5.82;2.45;;;15.70;99.90;;;;;;5042764;28;20226;-72
2023/05/15 07:13:06;;;;;;;2.17;2.08;;;15.90;99.90;;;;;;5044133;28;20211;-72
2023/05/15 07:15:33;;;;;;;2.08;1.98;;;16.00;99.90;;;;;;5037775;28;20558;-72
2023/05/15 07:18:00;;;;;;;1.98;1.88;;;16.00;99.90;;;;;;5051813;28;20207;-74
2023/05/15 07:20:29;;;;;;;2.03;1.92;;;16.00;99.90;;;;;;5044673;28;20491;-72
2023/05/15 07:22:56;;;;;;;1.45;1.45;;;15.80;99.90;;;;;;5046342;28;20663;-73
2023/05/15 07:25:23;;;;;;;2.75;1.55;;;15.60;99.90;;;;;;5044507;28;20302;-72
2023/05/15 07:27:50;;;;;;;1.90;1.80;;;15.70;99.90;;;;;;5042383;28;20778;-72
2023/05/15 07:30:16;;;;;;;2.10;1.83;;;16.30;99.90;;;;;;5041886;28;20289;-72
2023/05/15 07:32:43;;;;;;;1.83;1.58;;;16.50;99.90;;;;;;5041929;28;20562;-73
2023/05/15 07:35:11;;;;;;;1.95;1.85;;;16.50;99.90;;;;;;5043545;28;20290;-72
2023/05/15 07:37:39;;;;;;;1.85;1.75;;;16.80;99.90;;;;;;5043292;28;20209;-74
2023/05/15 07:40:07;;;;;;;1.67;1.58;;;17.00;99.90;;;;;;5036423;28;20623;-73
2023/05/15 07:42:34;;;;;;;1.60;1.50;;;16.80;99.90;;;;;;5039059;28;20206;-74
2023/05/15 07:45:02;;;;;;;1.35;1.30;;;16.70;99.90;;;;;;5046953;28;20281;-73
2023/05/15 07:47:29;;;;;;;1.60;1.50;;;16.50;99.90;;;;;;5040999;28;20272;-72
2023/05/15 07:49:55;;;;;;;1.80;1.70;;;16.50;99.90;;;;;;5040134;28;20404;-73
2023/05/15 07:52:22;;;;;;;1.70;1.60;;;16.40;99.90;;;;;;5044674;28;20229;-73
2023/05/15 07:54:51;;;;;;;1.73;1.60;;;16.40;99.90;;;;;;5039468;28;20305;-72
2023/05/15 07:57:18;;;;;;;2.17;1.70;;;16.50;99.90;;;;;;5042836;28;20486;-73
2023/05/15 07:59:45;;;;;;;2.40;1.77;;;16.40;99.90;;;;;;5045072;28;20206;-72
2023/05/15 08:02:12;;;;;;;1.50;1.40;;;16.60;99.90;;;;;;5041100;28;20230;-73
2023/05/15 08:04:39;;;;;;;2.90;1.30;;;17.00;99.90;;;;;;5044025;28;20290;-72
2023/05/15 08:07:07;;;;;;;1.80;1.70;;;16.90;99.90;;;;;;5035787;28;20203;-73
2023/05/15 08:09:34;;;;;;;1.33;1.33;;;16.90;99.90;;;;;;5042254;28;20582;-73
2023/05/15 08:12:19;;;;;;;2.80;1.48;;;17.00;99.90;;;;;;5040301;28;20252;-73
2023/05/15 08:14:47;;;;;;;2.28;1.55;;;16.90;99.90;;;;;;5041765;28;20234;-73
2023/05/15 08:17:14;;;;;;;1.35;1.25;;;16.90;99.90;;;;;;5044327;28;20199;-73
2023/05/15 08:19:41;;;;;;;1.25;1.10;;;17.30;99.90;;;;;;5043865;28;20199;-72
2023/05/15 08:22:08;;;;;;;1.50;1.17;;;17.70;99.90;;;;;;5044746;28;20214;-71
2023/05/15 08:24:35;;;;;;;1.30;1.20;;;17.90;99.90;;;;;;5040168;28;20243;-73
2023/05/15 08:27:02;;;;;;;1.20;1.20;;;17.90;99.90;;;;;;5044345;28;20274;-74
2023/05/15 08:29:30;;;;;;;1.40;1.35;;;17.90;99.90;;;;;;5041162;28;20223;-74
2023/05/15 08:31:57;;;;;;;1.45;1.35;;;18.00;99.90;;;;;;5038666;28;20206;-74
2023/05/15 08:34:24;;;;;;;1.50;1.40;;;18.00;99.90;;;;;;5040502;28;20276;-73
2023/05/15 08:36:52;;;;;;;1.45;1.38;;;18.10;99.90;;;;;;5042258;28;20206;-74
2023/05/15 08:39:19;;;;;;;1.48;1.38;;;18.20;99.90;;;;;;5041926;28;20260;-74
2023/05/15 08:41:52;;;;;;;1.20;1.20;;;18.10;99.90;;;;;;5041644;28;20656;-73
2023/05/15 08:44:21;;;;;;;1.60;1.50;;;18.00;99.90;;;;;;5041550;28;20218;-73
2023/05/15 08:46:49;;;;;;;3.33;1.30;;;18.10;99.90;;;;;;5043006;28;20231;-73
2023/05/15 08:49:27;;;;;;;1.10;1.10;;;18.40;99.90;;;;;;5043122;28;20226;-73
2023/05/15 08:51:55;;;;;;;1.20;1.10;;;18.30;99.90;;;;;;5039985;28;20285;-73
2023/05/15 08:54:22;;;;;;;1.20;1.20;;;18.40;99.90;;;;;;5039178;28;20257;-73
2023/05/15 08:56:49;;;;;;;1.38;1.30;;;18.40;99.90;;;;;;5040925;28;20464;-74
2023/05/15 08:59:16;;;;;;;9.57;1.70;;;18.30;99.90;;;;;;5038082;28;20199;-73
2023/05/15 09:01:44;;;;;;;1.48;1.27;;;18.20;99.90;;;;;;5036717;28;20633;-72
2023/05/15 09:04:12;;;;;;;1.38;1.27;;;18.20;99.90;;;;;;5040778;28;20230;-73
2023/05/15 09:06:40;;;;;;;1.20;1.20;;;18.50;99.90;;;;;;5040862;28;20268;-74
2023/05/15 09:09:12;;;;;;;1.40;1.30;;;18.70;99.90;;;;;;5043001;28;20252;-74
2023/05/15 09:11:43;;;;;;;1.38;1.15;;;19.00;99.90;;;;;;5043547;28;20217;-74
2023/05/15 09:14:10;;;;;;;1.40;1.27;;;18.90;99.90;;;;;;5038784;28;20260;-73
2023/05/15 09:16:38;;;;;;;1.48;0.90;;;19.00;99.90;;;;;;5037381;28;20207;-72
2023/05/15 09:19:06;;;;;;;1.58;1.13;;;19.10;99.90;;;;;;5038874;28;20256;-73
2023/05/15 09:21:34;;;;;;;1.10;1.10;;;19.30;99.90;;;;;;5038870;28;21277;-74
2023/05/15 09:24:18;;;;;;;2.17;1.02;;;19.30;99.90;;;;;;5033701;28;20298;-74
2023/05/15 09:26:47;;;;;;;1.10;1.10;;;19.20;99.90;;;;;;5041555;28;20214;-74
2023/05/15 09:29:16;;;;;;;1.50;1.40;;;19.40;99.90;;;;;;5036165;28;20300;-74
2023/05/15 09:31:45;;;;;;;1.00;1.00;;;19.50;99.90;;;;;;5037880;28;20198;-75
2023/05/15 09:34:13;;;;;;;1.92;1.13;;;19.70;99.90;;;;;;5040700;28;20310;-73
2023/05/15 09:36:44;;;;;;;1.10;1.00;;;19.90;99.90;;;;;;5047560;28;20306;-75
2023/05/15 09:39:11;;;;;;;1.40;1.30;;;20.00;99.90;;;;;;5040572;28;20290;-74
2023/05/15 09:41:43;;;;;;;4.03;1.00;;;20.20;99.90;;;;;;5043076;28;21181;-74
2023/05/15 09:44:19;;;;;;;1.15;1.15;;;20.20;99.90;;;;;;5045560;28;20230;-73
2023/05/15 09:46:46;;;;;;;1.45;1.35;;;20.10;99.90;;;;;;5043105;28;20838;-72
2023/05/15 09:49:13;;;;;;;1.80;1.15;;;20.20;99.90;;;;;;5046448;28;20195;-74
2023/05/15 09:51:40;;;;;;;0.90;0.90;;;20.30;99.90;;;;;;5046047;28;20206;-73
2023/05/15 09:54:15;;;;;;;1.00;1.00;;;20.50;99.90;;;;;;5043780;28;20272;-73
2023/05/15 09:56:43;;;;;;;1.38;1.13;;;20.50;99.90;;;;;;5043984;28;20284;-73
2023/05/15 09:59:14;;;;;;;1.40;1.20;;;20.50;99.90;;;;;;5049192;28;20536;-74
2023/05/15 10:01:44;;;;;;;3.72;0.98;;;20.50;99.90;;;;;;5046635;28;20324;-73
2023/05/15 10:04:12;;;;;;;1.08;1.08;;;20.70;99.90;;;;;;5046959;28;20241;-74
2023/05/15 10:06:40;;;;;;;1.02;1.02;;;20.90;99.90;;;;;;5049433;28;20218;-74
2023/05/15 10:09:09;;;;;;;0.90;0.90;;;21.20;99.90;;;;;;5053138;28;20640;-74
2023/05/15 10:11:38;;;;;;;1.00;1.00;;;21.30;99.90;;;;;;5036979;28;20230;-74
2023/05/15 10:14:06;;;;;;;1.15;1.05;;;21.50;99.90;;;;;;5043899;28;20296;-72
2023/05/15 10:16:34;;;;;;;1.20;1.10;;;21.40;99.90;;;;;;5039966;28;20381;-74
2023/05/15 10:19:03;;;;;;;0.80;0.80;;;21.20;99.90;;;;;;5039734;28;20280;-74
2023/05/15 10:21:33;;;;;;;1.15;0.98;;;21.10;99.90;;;;;;5037867;28;20226;-73
2023/05/15 10:24:00;;;;;;;0.70;0.70;;;21.20;99.90;;;;;;5045005;28;20227;-74
2023/05/15 10:26:35;;;;;;;0.90;0.90;;;21.30;99.90;;;;;;5036599;28;20287;-75
2023/05/15 10:29:05;;;;;;;2.58;1.35;;;21.60;99.90;;;;;;5041387;28;20421;-74
2023/05/15 10:31:33;;;;;;;2.55;1.70;;;21.90;99.90;;;;;;5042542;28;20301;-74
2023/05/15 10:34:01;;;;;;;3.80;2.33;;;22.10;99.90;;;;;;5040626;28;20321;-74
2023/05/15 10:36:29;;;;;;;9.15;4.30;;;22.20;99.90;;;;;;5035951;28;20210;-73
2023/05/15 10:38:58;;;;;;;6.18;2.90;;;22.20;99.90;;;;;;5043736;28;20616;-73
2023/05/15 10:41:27;;;;;;;3.58;2.03;;;22.40;99.90;;;;;;5037629;28;20677;-74
2023/05/15 10:43:57;;;;;;;2.20;1.70;;;22.40;99.90;;;;;;5038935;28;20307;-75
2023/05/15 10:46:25;;;;;;;2.85;1.10;;;22.30;99.90;;;;;;5042794;28;20302;-74
2023/05/15 10:48:52;;;;;;;1.23;1.13;;;22.40;99.90;;;;;;5043665;28;20758;-75
2023/05/15 10:51:25;;;;;;;1.23;1.13;;;22.40;99.90;;;;;;5042495;28;20590;-74
2023/05/15 10:53:52;;;;;;;1.05;0.93;;;22.40;99.90;;;;;;5037760;28;20499;-74
2023/05/15 10:56:20;;;;;;;0.93;0.93;;;22.60;99.90;;;;;;5041304;28;20481;-74
2023/05/15 10:58:48;;;;;;;1.17;1.00;;;22.70;99.90;;;;;;5041380;28;20195;-74
2023/05/15 11:01:31;;;;;;;1.05;0.98;;;22.70;99.90;;;;;;5034508;28;20295;-73
2023/05/15 11:04:07;;;;;;;0.90;0.90;;;22.60;99.90;;;;;;5036578;28;20222;-73
2023/05/15 11:06:35;;;;;;;0.90;0.90;;;22.80;99.90;;;;;;5042639;28;20699;-73
2023/05/15 11:09:33;;;;;;;2.22;0.73;;;22.90;99.90;;;;;;5033016;28;20201;-73
2023/05/15 11:12:01;;;;;;;1.30;0.80;;;23.00;99.90;;;;;;5039381;28;20230;-73
2023/05/15 11:14:29;;;;;;;3.80;0.77;;;23.00;99.90;;;;;;5039548;28;20597;-73
2023/05/15 11:16:59;;;;;;;1.20;1.00;;;23.00;99.90;;;;;;5041285;28;20286;-74
2023/05/15 11:19:33;;;;;;;1.98;1.40;;;23.20;99.90;;;;;;5036219;28;20478;-74
2023/05/15 11:22:02;;;;;;;0.90;0.90;;;23.40;99.90;;;;;;5035158;28;20634;-73
2023/05/15 11:24:30;;;;;;;1.02;0.80;;;23.50;99.90;;;;;;5037133;28;20605;-75
2023/05/15 11:27:00;;;;;;;2.50;0.77;;;23.60;99.90;;;;;;5037121;28;20308;-74
2023/05/15 11:29:27;;;;;;;1.13;0.90;;;23.50;99.90;;;;;;5038456;28;20292;-73
2023/05/15 11:31:55;;;;;;;0.80;0.80;;;23.30;99.90;;;;;;5038429;28;20227;-73
2023/05/15 11:34:33;;;;;;;1.27;0.80;;;23.50;99.90;;;;;;5039379;28;20308;-73
2023/05/15 11:37:00;;;;;;;0.70;0.70;;;23.60;99.90;;;;;;5036333;28;20278;-72
2023/05/15 11:39:28;;;;;;;0.88;0.88;;;23.70;99.90;;;;;;5031918;28;20289;-72
2023/05/15 11:41:55;;;;;;;1.00;1.00;;;23.70;99.90;;;;;;5037952;28;20282;-72
2023/05/15 11:44:23;;;;;;;1.75;1.17;;;23.80;99.90;;;;;;5037199;28;20605;-72
2023/05/15 11:46:51;;;;;;;3.15;1.00;;;23.70;99.90;;;;;;5033909;28;20222;-73
2023/05/15 11:49:19;;;;;;;0.80;0.80;;;23.80;99.90;;;;;;5041570;28;20264;-74
2023/05/15 11:51:51;;;;;;;0.60;0.60;;;23.80;99.90;;;;;;5040536;28;20191;-72
2023/05/15 11:54:18;;;;;;;0.60;0.60;;;23.90;99.90;;;;;;5036019;28;20215;-72
2023/05/15 11:56:45;;;;;;;1.75;0.98;;;23.90;99.90;;;;;;5036047;28;20225;-73
2023/05/15 11:59:13;;;;;;;1.83;0.73;;;23.80;99.90;;;;;;5038163;28;20692;-72
2023/05/15 12:01:41;;;;;;;0.80;0.80;;;23.60;99.90;;;;;;5039477;28;20207;-72
2023/05/15 12:04:14;;;;;;;0.60;0.60;;;23.40;99.90;;;;;;5034402;28;20226;-72
2023/05/15 12:06:43;;;;;;;0.70;0.70;;;23.50;99.90;;;;;;5040146;28;20218;-72
2023/05/15 12:09:16;;;;;;;0.93;0.90;;;23.60;99.90;;;;;;5037818;28;20290;-72
2023/05/15 12:11:49;;;;;;;0.85;0.70;;;23.90;99.90;;;;;;5032740;28;20202;-73
2023/05/15 12:14:26;;;;;;;0.57;0.57;;;24.20;99.90;;;;;;5039493;28;20395;-72
2023/05/15 12:16:52;;;;;;;0.60;0.60;;;24.40;99.90;;;;;;5043510;28;20251;-73
2023/05/15 12:19:26;;;;;;;0.60;0.60;;;24.70;99.90;;;;;;5036578;28;20285;-73
2023/05/15 12:21:53;;;;;;;0.80;0.80;;;24.90;99.90;;;;;;5037744;28;20863;-72
2023/05/15 12:24:21;;;;;;;0.80;0.80;;;25.10;99.90;;;;;;5043614;28;20775;-71
2023/05/15 12:26:51;;;;;;;0.70;0.70;;;25.20;99.90;;;;;;5034118;28;20617;-74
2023/05/15 12:29:18;;;;;;;0.80;0.80;;;25.10;99.90;;;;;;5034478;28;20421;-73
2023/05/15 12:31:46;;;;;;;0.70;0.70;;;25.20;99.90;;;;;;5039529;28;20753;-73
2023/05/15 12:34:15;;;;;;;0.80;0.80;;;25.40;99.90;;;;;;5038351;28;20237;-77
2023/05/15 12:36:42;;;;;;;0.70;0.70;;;25.50;99.90;;;;;;5037190;28;20249;-74
2023/05/15 12:39:12;;;;;;;0.70;0.68;;;25.50;99.90;;;;;;5038920;28;20292;-74
2023/05/15 12:41:41;;;;;;;0.70;0.70;;;25.70;99.90;;;;;;5038051;28;20203;-74
2023/05/15 12:44:16;;;;;;;0.60;0.60;;;25.80;99.90;;;;;;5036949;28;20313;-74
2023/05/15 12:46:43;;;;;;;0.60;0.60;;;25.80;99.90;;;;;;5039599;28;20196;-73
2023/05/15 12:49:11;;;;;;;0.50;0.50;;;26.00;99.90;;;;;;5036992;28;20750;-73
2023/05/15 12:51:43;;;;;;;0.50;0.50;;;25.80;99.90;;;;;;5037397;28;20282;-73
2023/05/15 12:54:17;;;;;;;0.60;0.60;;;25.80;99.90;;;;;;5038392;28;20262;-74